sensor_id;sensor_type;location;lat;lon;timestamp;temperature;humidity
75457;SHT31;64036;48.266;14.192;2023-04-12T00:01:21;5.22;81.91
75457;SHT31;64036;48.266;14.192;2023-04-12T00:03:49;5.24;81.90
75457;SHT31;64036;48.266;14.192;2023-04-12T00:06:39;5.30;81.89
75457;SHT31;64036;48.266;14.192;2023-04-12T00:09:21;5.37;81.75
75457;SHT31;64036;48.266;14.192;2023-04-12T00:12:05;5.45;81.65
75457;SHT31;64036;48.266;14.192;2023-04-12T00:14:31;5.49;81.54
75457;SHT31;64036;48.266;14.192;2023-04-12T00:16:57;5.45;81.67
75457;SHT31;64036;48.266;14.192;2023-04-12T00:19:44;5.34;81.85
75457;SHT31;64036;48.266;14.192;2023-04-12T00:22:15;5.28;82.13
75457;SHT31;64036;48.266;14.192;2023-04-12T00:24:46;5.30;82.18
75457;SHT31;64036;48.266;14.192;2023-04-12T00:27:12;5.32;82.17
75457;SHT31;64036;48.266;14.192;2023-04-12T00:29:38;5.30;82.15
75457;SHT31;64036;48.266;14.192;2023-04-12T00:32:04;5.29;82.10
75457;SHT31;64036;48.266;14.192;2023-04-12T00:34:30;5.32;82.03
75457;SHT31;64036;48.266;14.192;2023-04-12T00:36:59;5.31;81.96
75457;SHT31;64036;48.266;14.192;2023-04-12T00:39:37;5.30;81.80
75457;SHT31;64036;48.266;14.192;2023-04-12T00:42:08;5.29;81.68
75457;SHT31;64036;48.266;14.192;2023-04-12T00:44:36;5.23;81.59
75457;SHT31;64036;48.266;14.192;2023-04-12T00:47:02;5.18;81.60
75457;SHT31;64036;48.266;14.192;2023-04-12T00:49:34;5.17;81.70
75457;SHT31;64036;48.266;14.192;2023-04-12T00:52:02;5.18;81.70
75457;SHT31;64036;48.266;14.192;2023-04-12T00:54:32;5.18;81.59
75457;SHT31;64036;48.266;14.192;2023-04-12T00:56:59;5.16;81.59
75457;SHT31;64036;48.266;14.192;2023-04-12T00:59:26;5.16;81.58
75457;SHT31;64036;48.266;14.192;2023-04-12T01:02:04;5.14;81.56
75457;SHT31;64036;48.266;14.192;2023-04-12T01:04:34;5.12;81.57
75457;SHT31;64036;48.266;14.192;2023-04-12T01:12:56;5.10;81.70
75457;SHT31;64036;48.266;14.192;2023-04-12T01:15:36;5.08;81.71
75457;SHT31;64036;48.266;14.192;2023-04-12T01:18:40;5.06;81.81
75457;SHT31;64036;48.266;14.192;2023-04-12T01:21:19;5.04;81.70
75457;SHT31;64036;48.266;14.192;2023-04-12T01:24:13;5.01;81.62
75457;SHT31;64036;48.266;14.192;2023-04-12T01:33:50;4.84;81.40
75457;SHT31;64036;48.266;14.192;2023-04-12T01:36:37;4.75;81.34
75457;SHT31;64036;48.266;14.192;2023-04-12T01:39:06;4.66;81.47
75457;SHT31;64036;48.266;14.192;2023-04-12T01:41:39;4.59;81.55
75457;SHT31;64036;48.266;14.192;2023-04-12T01:44:11;4.56;81.59
75457;SHT31;64036;48.266;14.192;2023-04-12T01:46:41;4.51;81.52
75457;SHT31;64036;48.266;14.192;2023-04-12T01:49:26;4.47;81.52
75457;SHT31;64036;48.266;14.192;2023-04-12T01:52:12;4.43;81.60
75457;SHT31;64036;48.266;14.192;2023-04-12T01:54:47;4.39;81.62
75457;SHT31;64036;48.266;14.192;2023-04-12T01:57:21;4.37;81.62
75457;SHT31;64036;48.266;14.192;2023-04-12T01:59:49;4.28;81.47
75457;SHT31;64036;48.266;14.192;2023-04-12T02:02:18;4.21;81.44
75457;SHT31;64036;48.266;14.192;2023-04-12T02:04:44;4.11;81.23
75457;SHT31;64036;48.266;14.192;2023-04-12T02:07:12;4.01;81.20
75457;SHT31;64036;48.266;14.192;2023-04-12T02:09:45;3.93;81.21
75457;SHT31;64036;48.266;14.192;2023-04-12T02:12:21;3.82;81.17
75457;SHT31;64036;48.266;14.192;2023-04-12T02:15:00;3.69;81.24
75457;SHT31;64036;48.266;14.192;2023-04-12T02:17:28;3.62;81.43
75457;SHT31;64036;48.266;14.192;2023-04-12T02:19:54;3.57;81.44
75457;SHT31;64036;48.266;14.192;2023-04-12T02:22:25;3.53;81.48
75457;SHT31;64036;48.266;14.192;2023-04-12T02:24:51;3.48;81.48
75457;SHT31;64036;48.266;14.192;2023-04-12T02:27:20;3.43;81.56
75457;SHT31;64036;48.266;14.192;2023-04-12T02:30:05;3.42;81.71
75457;SHT31;64036;48.266;14.192;2023-04-12T02:33:04;3.42;81.73
75457;SHT31;64036;48.266;14.192;2023-04-12T02:35:30;3.41;82.12
75457;SHT31;64036;48.266;14.192;2023-04-12T02:38:06;3.39;82.74
75457;SHT31;64036;48.266;14.192;2023-04-12T02:40:40;3.32;82.60
75457;SHT31;64036;48.266;14.192;2023-04-12T02:43:09;3.28;82.63
75457;SHT31;64036;48.266;14.192;2023-04-12T02:45:35;3.27;82.70
75457;SHT31;64036;48.266;14.192;2023-04-12T02:48:11;3.27;82.73
75457;SHT31;64036;48.266;14.192;2023-04-12T02:50:40;3.26;82.70
75457;SHT31;64036;48.266;14.192;2023-04-12T02:53:15;3.26;82.69
75457;SHT31;64036;48.266;14.192;2023-04-12T02:55:51;3.26;82.75
75457;SHT31;64036;48.266;14.192;2023-04-12T02:58:21;3.25;82.69
75457;SHT31;64036;48.266;14.192;2023-04-12T03:00:56;3.23;82.70
75457;SHT31;64036;48.266;14.192;2023-04-12T03:03:39;3.22;82.64
75457;SHT31;64036;48.266;14.192;2023-04-12T03:06:08;3.19;82.60
75457;SHT31;64036;48.266;14.192;2023-04-12T03:08:35;3.18;82.52
75457;SHT31;64036;48.266;14.192;2023-04-12T03:11:14;3.18;82.70
75457;SHT31;64036;48.266;14.192;2023-04-12T03:13:52;3.18;82.75
75457;SHT31;64036;48.266;14.192;2023-04-12T03:16:21;3.18;82.82
75457;SHT31;64036;48.266;14.192;2023-04-12T03:18:52;3.18;82.78
75457;SHT31;64036;48.266;14.192;2023-04-12T03:21:28;3.16;82.70
75457;SHT31;64036;48.266;14.192;2023-04-12T03:23:55;3.13;82.59
75457;SHT31;64036;48.266;14.192;2023-04-12T03:26:24;3.10;82.50
75457;SHT31;64036;48.266;14.192;2023-04-12T03:29:13;3.09;82.57
75457;SHT31;64036;48.266;14.192;2023-04-12T03:31:39;3.08;82.53
75457;SHT31;64036;48.266;14.192;2023-04-12T03:34:07;3.04;82.37
75457;SHT31;64036;48.266;14.192;2023-04-12T03:36:39;2.99;82.30
75457;SHT31;64036;48.266;14.192;2023-04-12T03:39:15;2.93;82.33
75457;SHT31;64036;48.266;14.192;2023-04-12T03:42:02;2.84;82.37
75457;SHT31;64036;48.266;14.192;2023-04-12T03:50:19;2.81;82.49
75457;SHT31;64036;48.266;14.192;2023-04-12T03:53:17;2.74;82.43
75457;SHT31;64036;48.266;14.192;2023-04-12T03:56:09;2.70;82.29
75457;SHT31;64036;48.266;14.192;2023-04-12T03:58:36;2.61;82.23
75457;SHT31;64036;48.266;14.192;2023-04-12T04:02:00;2.49;82.30
75457;SHT31;64036;48.266;14.192;2023-04-12T04:04:40;2.41;82.30
75457;SHT31;64036;48.266;14.192;2023-04-12T04:10:38;2.19;82.20
75457;SHT31;64036;48.266;14.192;2023-04-12T04:13:15;2.09;82.43
75457;SHT31;64036;48.266;14.192;2023-04-12T04:16:17;2.01;82.57
75457;SHT31;64036;48.266;14.192;2023-04-12T04:19:14;1.97;82.60
75457;SHT31;64036;48.266;14.192;2023-04-12T04:21:52;2.00;82.85
75457;SHT31;64036;48.266;14.192;2023-04-12T04:24:34;2.05;82.95
75457;SHT31;64036;48.266;14.192;2023-04-12T04:27:08;2.12;82.91
75457;SHT31;64036;48.266;14.192;2023-04-12T04:29:36;2.20;82.83
75457;SHT31;64036;48.266;14.192;2023-04-12T04:32:08;2.23;82.71
75457;SHT31;64036;48.266;14.192;2023-04-12T04:34:45;2.30;82.55
75457;SHT31;64036;48.266;14.192;2023-04-12T04:39:57;2.48;82.56
75457;SHT31;64036;48.266;14.192;2023-04-12T04:42:51;2.59;82.34
75457;SHT31;64036;48.266;14.192;2023-04-12T04:45:31;2.73;82.20
75457;SHT31;64036;48.266;14.192;2023-04-12T04:48:10;2.91;81.80
75457;SHT31;64036;48.266;14.192;2023-04-12T04:50:50;3.01;81.78
75457;SHT31;64036;48.266;14.192;2023-04-12T04:53:22;3.22;81.71
75457;SHT31;64036;48.266;14.192;2023-04-12T04:55:57;3.58;81.51
75457;SHT31;64036;48.266;14.192;2023-04-12T04:58:29;4.08;81.21
75457;SHT31;64036;48.266;14.192;2023-04-12T05:01:00;4.68;80.76
75457;SHT31;64036;48.266;14.192;2023-04-12T05:03:29;5.30;80.08
75457;SHT31;64036;48.266;14.192;2023-04-12T05:05:58;5.92;79.30
75457;SHT31;64036;48.266;14.192;2023-04-12T05:08:26;6.49;78.41
75457;SHT31;64036;48.266;14.192;2023-04-12T05:10:53;7.10;77.93
75457;SHT31;64036;48.266;14.192;2023-04-12T05:13:20;7.73;77.08
75457;SHT31;64036;48.266;14.192;2023-04-12T05:15:47;8.36;75.71
75457;SHT31;64036;48.266;14.192;2023-04-12T05:18:13;8.91;74.76
75457;SHT31;64036;48.266;14.192;2023-04-12T05:20:39;9.41;74.10
75457;SHT31;64036;48.266;14.192;2023-04-12T05:23:06;9.81;72.96
75457;SHT31;64036;48.266;14.192;2023-04-12T05:25:32;10.21;72.51
75457;SHT31;64036;48.266;14.192;2023-04-12T05:27:58;10.70;71.51
75457;SHT31;64036;48.266;14.192;2023-04-12T05:30:23;11.30;70.07
75457;SHT31;64036;48.266;14.192;2023-04-12T05:32:49;11.96;68.40
75457;SHT31;64036;48.266;14.192;2023-04-12T05:35:15;12.54;66.98
75457;SHT31;64036;48.266;14.192;2023-04-12T05:37:40;12.87;65.59
75457;SHT31;64036;48.266;14.192;2023-04-12T05:40:06;12.90;65.18
75457;SHT31;64036;48.266;14.192;2023-04-12T05:42:34;12.86;64.31
75457;SHT31;64036;48.266;14.192;2023-04-12T05:45:03;13.03;63.43
75457;SHT31;64036;48.266;14.192;2023-04-12T05:47:30;13.13;62.59
75457;SHT31;64036;48.266;14.192;2023-04-12T05:49:56;13.06;62.43
75457;SHT31;64036;48.266;14.192;2023-04-12T05:52:22;12.78;61.94
75457;SHT31;64036;48.266;14.192;2023-04-12T05:54:47;12.45;61.95
75457;SHT31;64036;48.266;14.192;2023-04-12T05:57:13;12.32;61.67
75457;SHT31;64036;48.266;14.192;2023-04-12T05:59:39;12.40;61.23
75457;SHT31;64036;48.266;14.192;2023-04-12T06:02:05;12.39;61.02
75457;SHT31;64036;48.266;14.192;2023-04-12T06:04:33;12.47;60.77
75457;SHT31;64036;48.266;14.192;2023-04-12T06:06:59;12.72;60.74
75457;SHT31;64036;48.266;14.192;2023-04-12T06:09:25;12.93;60.31
75457;SHT31;64036;48.266;14.192;2023-04-12T06:11:51;13.03;59.84
75457;SHT31;64036;48.266;14.192;2023-04-12T06:14:18;12.98;59.83
75457;SHT31;64036;48.266;14.192;2023-04-12T06:16:43;12.78;60.14
75457;SHT31;64036;48.266;14.192;2023-04-12T06:19:09;12.52;59.99
75457;SHT31;64036;48.266;14.192;2023-04-12T06:21:35;12.34;60.21
75457;SHT31;64036;48.266;14.192;2023-04-12T06:24:00;12.24;60.14
75457;SHT31;64036;48.266;14.192;2023-04-12T06:26:26;12.19;60.62
75457;SHT31;64036;48.266;14.192;2023-04-12T06:28:51;12.39;60.16
75457;SHT31;64036;48.266;14.192;2023-04-12T06:31:17;12.79;59.58
75457;SHT31;64036;48.266;14.192;2023-04-12T06:33:43;13.21;58.17
75457;SHT31;64036;48.266;14.192;2023-04-12T06:36:08;13.55;57.84
75457;SHT31;64036;48.266;14.192;2023-04-12T06:38:35;13.90;57.28
75457;SHT31;64036;48.266;14.192;2023-04-12T06:41:01;14.20;56.72
75457;SHT31;64036;48.266;14.192;2023-04-12T06:43:26;14.52;55.86
75457;SHT31;64036;48.266;14.192;2023-04-12T06:45:52;14.74;54.77
75457;SHT31;64036;48.266;14.192;2023-04-12T06:48:17;15.03;54.59
75457;SHT31;64036;48.266;14.192;2023-04-12T06:50:43;15.28;54.36
75457;SHT31;64036;48.266;14.192;2023-04-12T06:53:09;15.63;52.63
75457;SHT31;64036;48.266;14.192;2023-04-12T06:55:37;16.00;51.13
75457;SHT31;64036;48.266;14.192;2023-04-12T06:58:03;16.28;50.27
75457;SHT31;64036;48.266;14.192;2023-04-12T07:00:29;16.73;49.37
75457;SHT31;64036;48.266;14.192;2023-04-12T07:02:54;17.29;49.37
75457;SHT31;64036;48.266;14.192;2023-04-12T07:05:20;17.84;47.94
75457;SHT31;64036;48.266;14.192;2023-04-12T07:07:46;18.18;47.37
75457;SHT31;64036;48.266;14.192;2023-04-12T07:10:11;18.23;46.90
75457;SHT31;64036;48.266;14.192;2023-04-12T07:12:37;18.41;46.61
75457;SHT31;64036;48.266;14.192;2023-04-12T07:15:02;18.34;46.31
75457;SHT31;64036;48.266;14.192;2023-04-12T07:17:28;18.22;46.59
75457;SHT31;64036;48.266;14.192;2023-04-12T07:19:54;18.28;46.09
75457;SHT31;64036;48.266;14.192;2023-04-12T07:22:20;18.25;46.13
75457;SHT31;64036;48.266;14.192;2023-04-12T07:24:46;18.48;45.61
75457;SHT31;64036;48.266;14.192;2023-04-12T07:27:13;18.53;45.40
75457;SHT31;64036;48.266;14.192;2023-04-12T07:29:40;18.34;45.03
75457;SHT31;64036;48.266;14.192;2023-04-12T07:32:05;18.17;46.32
75457;SHT31;64036;48.266;14.192;2023-04-12T07:34:32;17.76;45.71
75457;SHT31;64036;48.266;14.192;2023-04-12T07:36:58;17.09;46.08
75457;SHT31;64036;48.266;14.192;2023-04-12T07:39:25;16.59;47.70
75457;SHT31;64036;48.266;14.192;2023-04-12T07:41:51;16.86;47.92
75457;SHT31;64036;48.266;14.192;2023-04-12T07:44:17;17.15;47.06
75457;SHT31;64036;48.266;14.192;2023-04-12T07:46:42;17.22;47.09
75457;SHT31;64036;48.266;14.192;2023-04-12T07:49:08;17.23;46.78
75457;SHT31;64036;48.266;14.192;2023-04-12T07:51:34;17.24;47.05
75457;SHT31;64036;48.266;14.192;2023-04-12T07:54:01;17.21;46.52
75457;SHT31;64036;48.266;14.192;2023-04-12T07:56:27;17.06;46.38
75457;SHT31;64036;48.266;14.192;2023-04-12T07:58:53;17.05;46.73
75457;SHT31;64036;48.266;14.192;2023-04-12T08:01:18;17.32;47.19
75457;SHT31;64036;48.266;14.192;2023-04-12T08:03:45;17.75;46.59
75457;SHT31;64036;48.266;14.192;2023-04-12T08:06:11;18.01;46.17
75457;SHT31;64036;48.266;14.192;2023-04-12T08:08:36;18.19;45.49
75457;SHT31;64036;48.266;14.192;2023-04-12T08:11:02;18.73;44.87
75457;SHT31;64036;48.266;14.192;2023-04-12T08:13:30;19.09;43.79
75457;SHT31;64036;48.266;14.192;2023-04-12T08:15:57;19.23;43.52
75457;SHT31;64036;48.266;14.192;2023-04-12T08:18:23;20.02;42.01
75457;SHT31;64036;48.266;14.192;2023-04-12T08:20:48;20.75;40.59
75457;SHT31;64036;48.266;14.192;2023-04-12T08:23:14;21.30;39.76
75457;SHT31;64036;48.266;14.192;2023-04-12T08:25:40;22.05;39.87
75457;SHT31;64036;48.266;14.192;2023-04-12T08:28:06;22.48;39.83
75457;SHT31;64036;48.266;14.192;2023-04-12T08:30:32;22.78;37.89
75457;SHT31;64036;48.266;14.192;2023-04-12T08:32:58;22.55;37.73
75457;SHT31;64036;48.266;14.192;2023-04-12T08:35:24;22.06;38.64
75457;SHT31;64036;48.266;14.192;2023-04-12T08:37:50;22.05;38.71
75457;SHT31;64036;48.266;14.192;2023-04-12T08:40:15;21.43;38.90
75457;SHT31;64036;48.266;14.192;2023-04-12T08:42:41;20.47;39.76
75457;SHT31;64036;48.266;14.192;2023-04-12T08:45:08;19.73;41.19
75457;SHT31;64036;48.266;14.192;2023-04-12T08:47:40;19.19;41.24
75457;SHT31;64036;48.266;14.192;2023-04-12T08:50:08;18.58;42.29
75457;SHT31;64036;48.266;14.192;2023-04-12T08:52:37;18.05;44.11
75457;SHT31;64036;48.266;14.192;2023-04-12T08:55:07;17.70;44.92
75457;SHT31;64036;48.266;14.192;2023-04-12T08:57:34;17.97;43.91
75457;SHT31;64036;48.266;14.192;2023-04-12T09:00:01;17.92;44.79
75457;SHT31;64036;48.266;14.192;2023-04-12T09:02:29;17.70;44.74
75457;SHT31;64036;48.266;14.192;2023-04-12T09:04:55;17.61;44.93
75457;SHT31;64036;48.266;14.192;2023-04-12T09:07:21;17.80;45.70
75457;SHT31;64036;48.266;14.192;2023-04-12T09:09:47;18.40;44.22
75457;SHT31;64036;48.266;14.192;2023-04-12T09:12:15;19.15;42.83
75457;SHT31;64036;48.266;14.192;2023-04-12T09:14:44;19.50;41.92
75457;SHT31;64036;48.266;14.192;2023-04-12T09:17:22;20.05;40.73
75457;SHT31;64036;48.266;14.192;2023-04-12T09:19:50;20.21;40.72
75457;SHT31;64036;48.266;14.192;2023-04-12T09:22:17;20.64;39.88
75457;SHT31;64036;48.266;14.192;2023-04-12T09:24:46;21.07;39.30
75457;SHT31;64036;48.266;14.192;2023-04-12T09:27:15;20.98;40.37
75457;SHT31;64036;48.266;14.192;2023-04-12T09:29:41;20.75;40.15
75457;SHT31;64036;48.266;14.192;2023-04-12T09:32:09;20.41;39.62
75457;SHT31;64036;48.266;14.192;2023-04-12T09:34:35;20.14;40.62
75457;SHT31;64036;48.266;14.192;2023-04-12T09:37:13;20.06;41.55
75457;SHT31;64036;48.266;14.192;2023-04-12T09:39:41;19.94;41.82
75457;SHT31;64036;48.266;14.192;2023-04-12T09:42:07;19.61;40.81
75457;SHT31;64036;48.266;14.192;2023-04-12T09:44:39;19.17;40.02
75457;SHT31;64036;48.266;14.192;2023-04-12T09:47:05;18.42;42.36
75457;SHT31;64036;48.266;14.192;2023-04-12T09:49:38;17.65;44.72
75457;SHT31;64036;48.266;14.192;2023-04-12T09:52:06;17.07;45.93
75457;SHT31;64036;48.266;14.192;2023-04-12T09:54:43;16.47;46.81
75457;SHT31;64036;48.266;14.192;2023-04-12T09:57:12;16.20;47.17
75457;SHT31;64036;48.266;14.192;2023-04-12T09:59:41;16.06;47.87
75457;SHT31;64036;48.266;14.192;2023-04-12T10:02:13;16.00;49.03
75457;SHT31;64036;48.266;14.192;2023-04-12T10:04:41;15.92;49.44
75457;SHT31;64036;48.266;14.192;2023-04-12T10:07:07;15.87;50.76
75457;SHT31;64036;48.266;14.192;2023-04-12T10:09:36;15.84;50.74
75457;SHT31;64036;48.266;14.192;2023-04-12T10:12:04;15.80;50.78
75457;SHT31;64036;48.266;14.192;2023-04-12T10:14:31;15.63;50.19
75457;SHT31;64036;48.266;14.192;2023-04-12T10:16:58;15.49;50.35
75457;SHT31;64036;48.266;14.192;2023-04-12T10:19:27;15.54;50.73
75457;SHT31;64036;48.266;14.192;2023-04-12T10:21:55;15.79;50.73
75457;SHT31;64036;48.266;14.192;2023-04-12T10:24:22;16.16;51.93
75457;SHT31;64036;48.266;14.192;2023-04-12T10:26:49;16.13;49.98
75457;SHT31;64036;48.266;14.192;2023-04-12T10:29:24;16.06;50.59
75457;SHT31;64036;48.266;14.192;2023-04-12T10:31:52;16.06;51.28
75457;SHT31;64036;48.266;14.192;2023-04-12T10:34:28;16.05;51.33
75457;SHT31;64036;48.266;14.192;2023-04-12T10:39:41;16.21;50.19
75457;SHT31;64036;48.266;14.192;2023-04-12T10:44:45;16.82;48.83
75457;SHT31;64036;48.266;14.192;2023-04-12T10:47:11;16.95;48.56
75457;SHT31;64036;48.266;14.192;2023-04-12T10:49:37;16.96;48.10
75457;SHT31;64036;48.266;14.192;2023-04-12T10:54:30;17.29;46.50
75457;SHT31;64036;48.266;14.192;2023-04-12T10:56:59;17.65;46.52
75457;SHT31;64036;48.266;14.192;2023-04-12T10:59:49;17.59;46.44
75457;SHT31;64036;48.266;14.192;2023-04-12T11:02:16;17.93;45.81
75457;SHT31;64036;48.266;14.192;2023-04-12T11:07:41;18.57;45.89
75457;SHT31;64036;48.266;14.192;2023-04-12T11:10:12;18.80;44.29
75457;SHT31;64036;48.266;14.192;2023-04-12T11:12:49;18.60;44.34
75457;SHT31;64036;48.266;14.192;2023-04-12T11:15:19;18.28;43.34
75457;SHT31;64036;48.266;14.192;2023-04-12T11:17:55;18.13;44.61
75457;SHT31;64036;48.266;14.192;2023-04-12T11:20:22;18.17;45.65
75457;SHT31;64036;48.266;14.192;2023-04-12T11:22:51;18.28;45.89
75457;SHT31;64036;48.266;14.192;2023-04-12T11:25:18;18.44;45.75
75457;SHT31;64036;48.266;14.192;2023-04-12T11:27:51;18.41;44.60
75457;SHT31;64036;48.266;14.192;2023-04-12T11:30:19;18.22;44.35
75457;SHT31;64036;48.266;14.192;2023-04-12T11:32:45;18.25;45.22
75457;SHT31;64036;48.266;14.192;2023-04-12T11:35:13;18.59;45.40
75457;SHT31;64036;48.266;14.192;2023-04-12T11:37:40;18.84;44.41
75457;SHT31;64036;48.266;14.192;2023-04-12T11:40:07;18.81;44.95
75457;SHT31;64036;48.266;14.192;2023-04-12T11:42:34;18.91;45.76
75457;SHT31;64036;48.266;14.192;2023-04-12T11:45:00;18.99;43.97
75457;SHT31;64036;48.266;14.192;2023-04-12T11:47:25;18.88;44.09
75457;SHT31;64036;48.266;14.192;2023-04-12T11:52:29;18.76;45.43
75457;SHT31;64036;48.266;14.192;2023-04-12T11:54:58;18.88;43.80
75457;SHT31;64036;48.266;14.192;2023-04-12T11:57:30;18.94;43.45
75457;SHT31;64036;48.266;14.192;2023-04-12T11:59:57;19.07;43.00
75457;SHT31;64036;48.266;14.192;2023-04-12T12:02:24;19.26;41.78
75457;SHT31;64036;48.266;14.192;2023-04-12T12:04:50;19.56;41.82
75457;SHT31;64036;48.266;14.192;2023-04-12T12:07:16;19.81;41.79
75457;SHT31;64036;48.266;14.192;2023-04-12T12:09:43;20.23;41.16
75457;SHT31;64036;48.266;14.192;2023-04-12T12:12:10;20.42;39.63
75457;SHT31;64036;48.266;14.192;2023-04-12T12:14:37;20.18;39.69
75457;SHT31;64036;48.266;14.192;2023-04-12T12:17:10;19.85;39.97
75457;SHT31;64036;48.266;14.192;2023-04-12T12:19:38;19.75;41.44
75457;SHT31;64036;48.266;14.192;2023-04-12T12:22:13;19.74;41.72
75457;SHT31;64036;48.266;14.192;2023-04-12T12:24:48;19.74;42.37
75457;SHT31;64036;48.266;14.192;2023-04-12T12:29:54;19.10;42.61
75457;SHT31;64036;48.266;14.192;2023-04-12T12:32:20;19.10;42.97
75457;SHT31;64036;48.266;14.192;2023-04-12T12:37:25;19.17;42.99
75457;SHT31;64036;48.266;14.192;2023-04-12T12:40:09;19.15;43.28
75457;SHT31;64036;48.266;14.192;2023-04-12T12:42:46;18.42;43.81
75457;SHT31;64036;48.266;14.192;2023-04-12T12:45:19;17.62;45.25
75457;SHT31;64036;48.266;14.192;2023-04-12T12:47:48;17.29;44.64
75457;SHT31;64036;48.266;14.192;2023-04-12T12:50:25;17.21;46.67
75457;SHT31;64036;48.266;14.192;2023-04-12T12:52:53;17.26;46.88
75457;SHT31;64036;48.266;14.192;2023-04-12T12:55:20;17.40;47.15
75457;SHT31;64036;48.266;14.192;2023-04-12T12:57:48;17.36;46.06
75457;SHT31;64036;48.266;14.192;2023-04-12T13:00:21;17.42;47.12
75457;SHT31;64036;48.266;14.192;2023-04-12T13:02:48;17.68;46.64
75457;SHT31;64036;48.266;14.192;2023-04-12T13:05:15;17.84;46.05
75457;SHT31;64036;48.266;14.192;2023-04-12T13:07:41;17.75;47.00
75457;SHT31;64036;48.266;14.192;2023-04-12T13:10:08;17.87;47.42
75457;SHT31;64036;48.266;14.192;2023-04-12T13:12:34;18.21;46.67
75457;SHT31;64036;48.266;14.192;2023-04-12T13:15:00;18.49;46.14
75457;SHT31;64036;48.266;14.192;2023-04-12T13:17:26;18.62;45.84
75457;SHT31;64036;48.266;14.192;2023-04-12T13:19:53;18.65;45.69
75457;SHT31;64036;48.266;14.192;2023-04-12T13:22:20;18.43;45.78
75457;SHT31;64036;48.266;14.192;2023-04-12T13:24:45;18.24;45.92
75457;SHT31;64036;48.266;14.192;2023-04-12T13:27:11;18.17;46.18
75457;SHT31;64036;48.266;14.192;2023-04-12T13:29:38;17.83;47.99
75457;SHT31;64036;48.266;14.192;2023-04-12T13:32:04;17.46;47.10
75457;SHT31;64036;48.266;14.192;2023-04-12T13:34:30;17.21;47.67
75457;SHT31;64036;48.266;14.192;2023-04-12T13:36:57;17.05;47.81
75457;SHT31;64036;48.266;14.192;2023-04-12T13:39:23;16.99;47.87
75457;SHT31;64036;48.266;14.192;2023-04-12T13:41:49;16.99;48.29
75457;SHT31;64036;48.266;14.192;2023-04-12T13:44:15;17.11;48.02
75457;SHT31;64036;48.266;14.192;2023-04-12T13:46:41;17.32;47.87
75457;SHT31;64036;48.266;14.192;2023-04-12T13:49:07;17.49;47.57
75457;SHT31;64036;48.266;14.192;2023-04-12T13:51:32;17.63;47.68
75457;SHT31;64036;48.266;14.192;2023-04-12T13:53:58;17.73;47.31
75457;SHT31;64036;48.266;14.192;2023-04-12T13:56:24;17.70;47.43
75457;SHT31;64036;48.266;14.192;2023-04-12T13:58:50;17.61;47.73
75457;SHT31;64036;48.266;14.192;2023-04-12T14:01:16;17.53;47.77
75457;SHT31;64036;48.266;14.192;2023-04-12T14:03:42;17.40;48.21
75457;SHT31;64036;48.266;14.192;2023-04-12T14:06:08;17.44;48.08
75457;SHT31;64036;48.266;14.192;2023-04-12T14:08:34;17.36;48.34
75457;SHT31;64036;48.266;14.192;2023-04-12T14:11:01;17.20;50.14
75457;SHT31;64036;48.266;14.192;2023-04-12T14:13:27;17.08;50.09
75457;SHT31;64036;48.266;14.192;2023-04-12T14:15:53;16.89;49.71
75457;SHT31;64036;48.266;14.192;2023-04-12T14:18:20;16.63;49.09
75457;SHT31;64036;48.266;14.192;2023-04-12T14:20:49;16.61;49.40
75457;SHT31;64036;48.266;14.192;2023-04-12T14:23:19;16.68;50.11
75457;SHT31;64036;48.266;14.192;2023-04-12T14:25:47;16.68;49.85
75457;SHT31;64036;48.266;14.192;2023-04-12T14:28:14;16.63;49.45
75457;SHT31;64036;48.266;14.192;2023-04-12T14:30:44;16.61;49.54
75457;SHT31;64036;48.266;14.192;2023-04-12T14:33:10;16.60;50.18
75457;SHT31;64036;48.266;14.192;2023-04-12T14:35:36;16.63;49.93
75457;SHT31;64036;48.266;14.192;2023-04-12T14:38:02;16.65;50.52
75457;SHT31;64036;48.266;14.192;2023-04-12T14:40:29;16.65;50.54
75457;SHT31;64036;48.266;14.192;2023-04-12T14:42:55;16.69;50.74
75457;SHT31;64036;48.266;14.192;2023-04-12T14:45:21;16.70;50.96
75457;SHT31;64036;48.266;14.192;2023-04-12T14:47:47;16.74;51.16
75457;SHT31;64036;48.266;14.192;2023-04-12T14:50:13;16.74;51.11
75457;SHT31;64036;48.266;14.192;2023-04-12T14:52:40;16.67;49.82
75457;SHT31;64036;48.266;14.192;2023-04-12T14:55:06;16.57;49.68
75457;SHT31;64036;48.266;14.192;2023-04-12T14:57:32;16.60;50.04
75457;SHT31;64036;48.266;14.192;2023-04-12T14:59:59;16.59;49.69
75457;SHT31;64036;48.266;14.192;2023-04-12T15:02:25;16.59;50.17
75457;SHT31;64036;48.266;14.192;2023-04-12T15:04:52;16.57;49.51
75457;SHT31;64036;48.266;14.192;2023-04-12T15:07:18;16.51;49.48
75457;SHT31;64036;48.266;14.192;2023-04-12T15:09:44;16.42;50.71
75457;SHT31;64036;48.266;14.192;2023-04-12T15:12:09;16.32;50.22
75457;SHT31;64036;48.266;14.192;2023-04-12T15:14:35;16.35;50.40
75457;SHT31;64036;48.266;14.192;2023-04-12T15:17:02;16.42;49.60
75457;SHT31;64036;48.266;14.192;2023-04-12T15:19:29;16.51;50.44
75457;SHT31;64036;48.266;14.192;2023-04-12T15:21:55;16.59;50.48
75457;SHT31;64036;48.266;14.192;2023-04-12T15:24:21;16.71;50.22
75457;SHT31;64036;48.266;14.192;2023-04-12T15:26:48;16.77;50.96
75457;SHT31;64036;48.266;14.192;2023-04-12T15:29:15;16.74;50.36
75457;SHT31;64036;48.266;14.192;2023-04-12T15:31:42;16.66;51.01
75457;SHT31;64036;48.266;14.192;2023-04-12T15:34:09;16.63;51.71
75457;SHT31;64036;48.266;14.192;2023-04-12T15:36:38;16.58;51.92
75457;SHT31;64036;48.266;14.192;2023-04-12T15:39:05;16.54;52.06
75457;SHT31;64036;48.266;14.192;2023-04-12T15:41:35;16.50;52.16
75457;SHT31;64036;48.266;14.192;2023-04-12T15:44:06;16.46;52.41
75457;SHT31;64036;48.266;14.192;2023-04-12T15:46:34;16.35;52.14
75457;SHT31;64036;48.266;14.192;2023-04-12T15:49:00;16.31;52.73
75457;SHT31;64036;48.266;14.192;2023-04-12T15:51:27;16.26;52.58
75457;SHT31;64036;48.266;14.192;2023-04-12T15:53:54;16.17;52.82
75457;SHT31;64036;48.266;14.192;2023-04-12T15:56:20;16.10;52.99
75457;SHT31;64036;48.266;14.192;2023-04-12T15:58:52;16.05;52.97
75457;SHT31;64036;48.266;14.192;2023-04-12T16:01:20;16.00;53.11
75457;SHT31;64036;48.266;14.192;2023-04-12T16:03:47;15.93;53.65
75457;SHT31;64036;48.266;14.192;2023-04-12T16:06:14;15.89;53.93
75457;SHT31;64036;48.266;14.192;2023-04-12T16:08:48;15.86;54.18
75457;SHT31;64036;48.266;14.192;2023-04-12T16:11:16;15.80;54.21
75457;SHT31;64036;48.266;14.192;2023-04-12T16:13:44;15.75;54.21
75457;SHT31;64036;48.266;14.192;2023-04-12T16:16:12;15.67;54.06
75457;SHT31;64036;48.266;14.192;2023-04-12T16:18:41;15.62;53.95